Time;durP1;ratioP1;P1;durP2;ratioP2;P2;SDS_P1;SDS_P2;PMS_P1;PMS_P2;Temp;Humidity;BMP_temperature;BMP_pressure;BME280_temperature;BME280_humidity;BME280_pressure;Samples;Min_cycle;Max_cycle;Signal;HPM_P1;HPM_P2
2022/01/31 00:02:23;;;;;;;19.65;3.95;;;;;;;1.46;66.11;100323.97;1759058;80;20989;-71
2022/01/31 00:04:49;;;;;;;19.30;3.33;;;;;;;1.47;66.11;100324.34;1780054;80;21166;-70
2022/01/31 00:07:15;;;;;;;42.20;16.48;;;;;;;1.46;66.09;100311.31;1780382;80;20971;-70
2022/01/31 00:09:43;;;;;;;28.07;7.65;;;;;;;1.49;66.07;100318.48;1780370;80;21053;-71
2022/01/31 00:12:13;;;;;;;16.12;4.75;;;;;;;1.46;66.08;100313.47;1780395;80;21459;-71
2022/01/31 00:14:43;;;;;;;20.57;4.10;;;;;;;1.46;66.09;100313.47;1780079;80;21041;-70
2022/01/31 00:17:07;;;;;;;11.05;2.90;;;;;;;1.51;66.10;100304.74;1779827;80;21270;-70
2022/01/31 00:19:35;;;;;;;15.85;4.17;;;;;;;1.54;66.08;100308.11;1779911;80;20959;-70
2022/01/31 00:22:05;;;;;;;14.45;3.42;;;;;;;1.53;66.06;100299.86;1780497;80;21058;-70
2022/01/31 00:24:33;;;;;;;20.68;4.50;;;;;;;1.49;66.08;100297.47;1780153;80;21050;-71
2022/01/31 00:27:00;;;;;;;21.42;3.22;;;;;;;1.43;66.13;100291.84;1780144;80;21494;-71
2022/01/31 00:29:26;;;;;;;19.40;5.17;;;;;;;1.38;66.17;100278.19;1778919;80;21181;-70
2022/01/31 00:31:52;;;;;;;13.22;3.12;;;;;;;1.37;66.23;100287.86;1778682;80;21014;-70
2022/01/31 00:34:18;;;;;;;23.45;4.53;;;;;;;1.33;66.27;100291.70;1778984;80;21018;-71
2022/01/31 00:36:44;;;;;;;15.78;3.95;;;;;;;1.28;66.35;100283.30;1779265;80;20974;-70
2022/01/31 00:39:10;;;;;;;27.13;4.55;;;;;;;1.26;66.43;100277.34;1778954;80;21060;-71
2022/01/31 00:41:37;;;;;;;22.90;5.03;;;;;;;1.25;66.49;100280.91;1778419;80;21111;-70
2022/01/31 00:46:53;;;;;;;20.90;4.65;;;;;;;1.18;66.63;100275.75;1778922;80;21511;-70
2022/01/31 00:49:34;;;;;;;27.70;5.55;;;;;;;1.16;66.74;100271.06;1778368;80;21573;-70
2022/01/31 00:51:51;;;;;;;26.85;5.67;;;;;;;1.12;66.80;100257.83;1776732;80;21002;-70
2022/01/31 00:54:17;;;;;;;19.30;5.42;;;;;;;1.09;66.87;100259.84;1778489;80;21925;-70
2022/01/31 00:56:43;;;;;;;19.85;4.85;;;;;;;1.04;66.96;100256.70;1778446;80;21608;-70
2022/01/31 00:59:09;;;;;;;23.65;5.45;;;;;;;1.01;67.04;100251.22;1778587;80;21057;-70
2022/01/31 01:01:35;;;;;;;22.82;5.92;;;;;;;0.99;67.11;100253.09;1778863;80;21022;-70
2022/01/31 01:04:01;;;;;;;31.45;6.17;;;;;;;0.97;67.19;100253.70;1778860;80;20994;-70
2022/01/31 01:06:27;;;;;;;20.35;5.35;;;;;;;0.97;67.28;100258.48;1778891;80;21137;-70
2022/01/31 01:08:53;;;;;;;26.50;6.08;;;;;;;0.95;67.36;100249.05;1778899;80;20954;-71
2022/01/31 01:11:19;;;;;;;27.50;5.60;;;;;;;0.94;67.43;100255.23;1778882;80;21029;-70
2022/01/31 01:13:45;;;;;;;24.65;4.97;;;;;;;0.94;67.50;100243.42;1778638;80;20990;-70
2022/01/31 01:16:11;;;;;;;26.45;5.78;;;;;;;0.94;67.56;100240.80;1778746;80;21057;-70
2022/01/31 01:18:37;;;;;;;25.43;5.40;;;;;;;0.95;67.64;100235.92;1778134;80;21129;-71
2022/01/31 01:21:03;;;;;;;23.62;5.85;;;;;;;0.91;67.71;100229.22;1778858;80;20977;-70
2022/01/31 01:23:29;;;;;;;16.15;4.83;;;;;;;0.89;67.80;100227.16;1778652;79;21029;-71
2022/01/31 01:25:55;;;;;;;19.52;5.70;;;;;;;0.88;67.86;100226.82;1778900;80;20970;-70
2022/01/31 01:28:23;;;;;;;19.98;6.08;;;;;;;0.85;67.92;100223.92;1780413;79;20986;-70
2022/01/31 01:30:49;;;;;;;19.35;5.90;;;;;;;0.82;67.98;100214.13;1814979;78;21200;-70
2022/01/31 01:33:21;;;;;;;22.40;5.28;;;;;;;0.80;68.04;100210.32;1815411;79;20981;-71
2022/01/31 01:35:49;;;;;;;22.67;5.40;;;;;;;0.80;68.14;100206.86;1815086;78;21001;-70
2022/01/31 01:38:17;;;;;;;29.05;6.83;;;;;;;0.80;68.20;100212.95;1815261;78;20976;-71
2022/01/31 01:40:43;;;;;;;27.87;7.28;;;;;;;0.84;68.29;100205.68;1815274;79;20965;-71
2022/01/31 01:43:09;;;;;;;24.50;6.67;;;;;;;0.84;68.33;100206.52;1815367;79;21470;-71
2022/01/31 01:45:35;;;;;;;26.62;6.37;;;;;;;0.90;68.44;100198.66;1814884;79;20991;-71
2022/01/31 01:48:02;;;;;;;22.98;5.97;;;;;;;0.94;68.50;100194.86;1815468;79;21005;-71
2022/01/31 01:50:28;;;;;;;24.98;6.10;;;;;;;0.96;68.56;100189.01;1815354;79;21009;-70
2022/01/31 01:52:54;;;;;;;29.55;8.53;;;;;;;1.00;68.63;100191.77;1815447;79;21007;-71
2022/01/31 01:55:20;;;;;;;17.77;4.80;;;;;;;1.02;68.68;100182.01;1815114;79;21450;-70
2022/01/31 01:57:46;;;;;;;23.73;4.78;;;;;;;1.03;68.75;100177.09;1791919;79;21000;-70
2022/01/31 02:00:24;;;;;;;14.07;3.42;;;;;;;1.09;68.79;100166.13;1815351;79;21545;-70
2022/01/31 02:02:45;;;;;;;18.50;5.60;;;;;;;1.11;68.82;100164.70;1814373;78;21024;-70
2022/01/31 02:05:13;;;;;;;22.58;3.87;;;;;;;1.12;68.88;100155.89;1815548;79;21016;-71
2022/01/31 02:07:39;;;;;;;21.27;4.65;;;;;;;1.14;68.91;100155.28;1815273;79;21782;-71
2022/01/31 02:10:06;;;;;;;16.67;4.55;;;;;;;1.18;68.95;100143.59;1815262;79;21044;-71
2022/01/31 02:12:42;;;;;;;21.00;3.80;;;;;;;1.21;68.97;100132.38;1815380;78;21020;-71
2022/01/31 02:15:09;;;;;;;27.32;4.58;;;;;;;1.25;69.00;100133.83;1815299;79;21023;-71
2022/01/31 02:17:36;;;;;;;18.80;4.62;;;;;;;1.28;69.03;100124.87;1815428;79;21007;-71
2022/01/31 02:20:04;;;;;;;19.65;5.20;;;;;;;1.29;69.07;100114.73;1815400;79;21147;-70
2022/01/31 02:22:30;;;;;;;21.48;5.17;;;;;;;1.32;69.06;100114.48;1815334;79;21521;-71
2022/01/31 02:24:56;;;;;;;24.40;4.62;;;;;;;1.31;69.09;100107.08;1815295;79;21062;-70
2022/01/31 02:27:33;;;;;;;18.20;3.58;;;;;;;1.32;69.11;100103.51;1815313;79;21545;-71
2022/01/31 02:29:59;;;;;;;16.40;3.90;;;;;;;1.31;69.14;100099.67;1814488;78;21008;-71
2022/01/31 02:32:25;;;;;;;16.17;3.75;;;;;;;1.31;69.15;100093.95;1815330;79;21234;-70
2022/01/31 02:34:51;;;;;;;20.48;3.62;;;;;;;1.31;69.19;100087.86;1815319;79;21524;-71
2022/01/31 02:37:18;;;;;;;21.82;4.45;;;;;;;1.32;69.21;100086.44;1815333;79;21001;-71
2022/01/31 02:39:45;;;;;;;14.28;3.58;;;;;;;1.35;69.23;100084.04;1815463;79;21064;-71
2022/01/31 02:42:11;;;;;;;18.85;4.30;;;;;;;1.36;69.23;100078.69;1815252;79;21001;-71
2022/01/31 02:44:43;;;;;;;23.98;4.42;;;;;;;1.35;69.23;100076.16;1815362;79;21557;-71
2022/01/31 02:47:13;;;;;;;21.62;3.85;;;;;;;1.34;69.28;100076.63;1815123;78;21556;-70
2022/01/31 02:49:47;;;;;;;19.02;3.75;;;;;;;1.34;69.31;100072.69;1815087;78;20989;-71
2022/01/31 02:52:06;;;;;;;17.45;2.85;;;;;;;1.35;69.32;100066.49;1814047;78;21020;-71
2022/01/31 02:54:32;;;;;;;14.87;4.65;;;;;;;1.38;69.33;100058.37;1815464;79;21036;-71
2022/01/31 02:56:58;;;;;;;27.98;4.10;;;;;;;1.41;69.36;100050.25;1815647;79;21953;-71
2022/01/31 02:59:24;;;;;;;15.80;4.30;;;;;;;1.42;69.38;100051.92;1815080;79;20985;-70
2022/01/31 03:01:50;;;;;;;26.05;7.58;;;;;;;1.43;69.41;100044.41;1815465;79;21044;-70
2022/01/31 03:04:16;;;;;;;29.63;8.35;;;;;;;1.46;69.42;100034.97;1815494;79;20945;-71
2022/01/31 03:06:49;;;;;;;22.80;6.35;;;;;;;1.45;69.44;100028.03;1815520;79;20878;-70
2022/01/31 03:09:10;;;;;;;40.92;8.20;;;;;;;1.48;69.47;100031.73;1814663;78;21291;-71
2022/01/31 03:11:36;;;;;;;22.58;4.97;;;;;;;1.49;69.48;100025.52;1814980;79;21068;-71
2022/01/31 03:14:02;;;;;;;16.62;4.08;;;;;;;1.49;69.52;100021.59;1815397;79;21012;-70
2022/01/31 03:16:28;;;;;;;23.00;4.42;;;;;;;1.50;69.55;100015.38;1793129;78;20995;-71
2022/01/31 03:18:54;;;;;;;20.27;4.72;;;;;;;1.50;69.57;100016.70;1788618;80;20999;-71
2022/01/31 03:21:20;;;;;;;25.02;3.92;;;;;;;1.51;69.61;100013.59;1765762;81;21165;-71
2022/01/31 03:23:49;;;;;;;22.45;4.10;;;;;;;1.50;69.64;100016.70;1788327;80;20990;-70
2022/01/31 03:26:14;;;;;;;24.40;4.35;;;;;;;1.49;69.68;100007.14;1788313;80;21006;-71
2022/01/31 03:28:40;;;;;;;16.90;3.50;;;;;;;1.47;69.71;100002.97;1788074;80;21009;-71
2022/01/31 03:31:06;;;;;;;19.67;4.50;;;;;;;1.46;69.75;99996.88;1788213;80;21014;-71
2022/01/31 03:33:33;;;;;;;22.60;5.25;;;;;;;1.47;69.75;99993.77;1788413;80;21784;-70
2022/01/31 03:35:59;;;;;;;12.58;2.90;;;;;;;1.48;69.82;99983.13;1788250;80;21120;-71
2022/01/31 03:38:25;;;;;;;16.23;3.85;;;;;;;1.49;69.85;99969.52;1788305;80;20997;-70
2022/01/31 03:40:51;;;;;;;20.43;4.25;;;;;;;1.49;69.91;99962.47;1788360;80;20883;-70
2022/01/31 03:43:18;;;;;;;15.83;3.72;;;;;;;1.51;69.97;99969.73;1788288;80;20906;-71
2022/01/31 03:45:44;;;;;;;19.65;4.37;;;;;;;1.51;70.02;99963.17;1788592;80;21144;-71
2022/01/31 03:48:10;;;;;;;23.95;4.40;;;;;;;1.52;70.11;99961.38;1788358;79;21034;-70
2022/01/31 03:50:36;;;;;;;21.62;4.20;;;;;;;1.51;70.14;99961.85;1788358;80;20961;-71
2022/01/31 03:53:02;;;;;;;21.07;4.15;;;;;;;1.53;70.19;99960.91;1788343;80;21006;-71
2022/01/31 03:55:28;;;;;;;20.80;4.33;;;;;;;1.53;70.23;99962.22;1788135;80;21005;-70
2022/01/31 03:57:54;;;;;;;19.75;3.67;;;;;;;1.54;70.26;99953.39;1787903;80;22016;-71
2022/01/31 04:00:22;;;;;;;29.18;5.25;;;;;;;1.54;70.30;99950.76;1787848;80;21005;-71
2022/01/31 04:02:48;;;;;;;19.52;4.58;;;;;;;1.56;70.34;99950.14;1788115;80;21029;-71
2022/01/31 04:05:14;;;;;;;17.90;3.45;;;;;;;1.56;70.37;99934.38;1788306;80;20953;-71
2022/01/31 04:07:42;;;;;;;36.03;5.35;;;;;;;1.57;70.40;99930.80;1788211;80;21005;-70
2022/01/31 04:10:09;;;;;;;13.80;3.52;;;;;;;1.57;70.44;99924.23;1788508;80;21171;-71
2022/01/31 04:12:35;;;;;;;19.60;3.75;;;;;;;1.57;70.45;99926.86;1788214;80;21046;-70
2022/01/31 04:15:01;;;;;;;19.52;3.62;;;;;;;1.58;70.51;99927.22;1788337;80;20957;-71
2022/01/31 04:17:27;;;;;;;20.85;3.58;;;;;;;1.60;70.56;99931.39;1788270;80;20953;-70
2022/01/31 04:19:53;;;;;;;15.70;3.80;;;;;;;1.61;70.60;99923.87;1788361;80;21010;-70
2022/01/31 04:22:20;;;;;;;19.42;3.52;;;;;;;1.63;70.64;99922.41;1788179;80;21124;-70
2022/01/31 04:24:55;;;;;;;22.87;4.85;;;;;;;1.64;70.68;99916.20;1787762;80;21049;-70
2022/01/31 04:27:18;;;;;;;29.30;5.42;;;;;;;1.65;70.74;99908.20;1762048;80;21029;-70
2022/01/31 04:29:43;;;;;;;29.70;4.47;;;;;;;1.67;70.79;99912.01;1785084;79;21484;-71
2022/01/31 04:32:09;;;;;;;23.18;4.80;;;;;;;1.66;70.83;99907.70;1784841;79;21041;-71
2022/01/31 04:34:36;;;;;;;21.45;4.10;;;;;;;1.68;70.86;99909.75;1784300;79;21154;-71
2022/01/31 04:37:02;;;;;;;23.57;5.67;;;;;;;1.66;70.87;99904.60;1784653;80;21514;-71
2022/01/31 04:39:31;;;;;;;27.10;5.70;;;;;;;1.67;70.90;99901.50;1784735;80;21053;-71
2022/01/31 04:41:56;;;;;;;26.75;6.37;;;;;;;1.67;70.94;99893.61;1784654;80;21085;-71
2022/01/31 04:44:23;;;;;;;27.27;6.28;;;;;;;1.67;70.96;99894.92;1784778;80;21010;-71
2022/01/31 04:46:49;;;;;;;32.30;5.97;;;;;;;1.66;71.00;99894.09;1784876;80;21055;-71
2022/01/31 04:49:16;;;;;;;23.52;4.10;;;;;;;1.66;71.01;99885.37;1784752;80;21463;-71
2022/01/31 04:51:42;;;;;;;20.72;4.55;;;;;;;1.66;71.04;99883.58;1784503;80;21053;-71
2022/01/31 04:54:08;;;;;;;22.93;3.95;;;;;;;1.66;71.07;99877.48;1784560;80;21085;-71
2022/01/31 04:56:36;;;;;;;17.25;3.65;;;;;;;1.66;71.11;99875.69;1784735;80;20895;-71
2022/01/31 04:59:03;;;;;;;23.80;4.25;;;;;;;1.67;71.12;99876.05;1784138;80;21174;-71
2022/01/31 05:01:29;;;;;;;22.70;4.80;;;;;;;1.69;71.16;99870.69;1784295;80;20994;-71
2022/01/31 05:03:55;;;;;;;17.42;3.52;;;;;;;1.68;71.19;99867.70;1784498;80;21065;-71
2022/01/31 05:06:28;;;;;;;16.50;4.00;;;;;;;1.67;71.21;99865.55;1784719;80;20998;-71
2022/01/31 05:08:49;;;;;;;17.75;5.62;;;;;;;1.66;71.25;99866.97;1783338;80;21585;-70
2022/01/31 05:11:16;;;;;;;19.82;5.03;;;;;;;1.67;71.30;99850.25;1784697;80;21680;-70
2022/01/31 05:13:42;;;;;;;21.15;5.47;;;;;;;1.67;71.34;99846.31;1784484;80;21065;-70
2022/01/31 05:16:09;;;;;;;25.65;6.45;;;;;;;1.67;71.39;99842.37;1784222;80;21341;-71
2022/01/31 05:18:35;;;;;;;41.33;7.85;;;;;;;1.67;71.42;99834.48;1784406;79;20966;-70
2022/01/31 05:21:01;;;;;;;31.27;6.97;;;;;;;1.66;71.46;99835.44;1784121;79;21041;-70
2022/01/31 05:23:27;;;;;;;28.62;7.97;;;;;;;1.65;71.51;99821.48;1784604;80;21029;-70
2022/01/31 05:25:53;;;;;;;39.27;10.00;;;;;;;1.65;71.56;99818.02;1784338;80;21021;-71
2022/01/31 05:28:19;;;;;;;44.48;10.40;;;;;;;1.64;71.60;99816.34;1784536;80;21041;-70
2022/01/31 05:30:45;;;;;;;34.30;9.28;;;;;;;1.61;71.66;99804.78;1784118;80;21006;-70
2022/01/31 05:33:11;;;;;;;28.27;7.37;;;;;;;1.62;71.70;99798.58;1784574;80;20982;-70
2022/01/31 05:35:37;;;;;;;27.58;6.87;;;;;;;1.61;71.76;99791.64;1784638;80;21137;-70
2022/01/31 05:38:03;;;;;;;24.30;6.72;;;;;;;1.61;71.80;99778.50;1784254;80;21014;-70
2022/01/31 05:40:29;;;;;;;25.55;8.10;;;;;;;1.63;71.83;99780.51;1784724;80;21060;-70
2022/01/31 05:42:55;;;;;;;27.48;7.80;;;;;;;1.63;71.87;99775.25;1784485;80;21068;-70
2022/01/31 05:45:21;;;;;;;23.42;6.90;;;;;;;1.63;71.92;99770.00;1784785;80;20982;-71
2022/01/31 05:47:47;;;;;;;23.77;6.42;;;;;;;1.64;71.98;99763.79;1784199;80;21155;-70
2022/01/31 05:50:13;;;;;;;26.57;5.67;;;;;;;1.64;72.04;99760.69;1784545;80;21537;-70
2022/01/31 05:52:39;;;;;;;25.75;6.03;;;;;;;1.64;72.10;99753.28;1784708;80;21450;-70
2022/01/31 05:55:05;;;;;;;34.10;8.93;;;;;;;1.64;72.15;99746.70;1784207;80;20998;-70
2022/01/31 05:57:33;;;;;;;36.35;9.60;;;;;;;1.62;72.22;99748.14;1756123;80;21037;-70
2022/01/31 05:59:59;;;;;;;37.03;9.98;;;;;;;1.62;72.25;99741.56;1784656;80;20998;-70
2022/01/31 06:02:25;;;;;;;39.10;11.45;;;;;;;1.61;72.29;99732.52;1784231;80;21049;-70
2022/01/31 06:04:51;;;;;;;38.25;10.93;;;;;;;1.60;72.34;99729.05;1784377;80;21471;-70
2022/01/31 06:07:17;;;;;;;32.10;9.43;;;;;;;1.59;72.40;99723.91;1784658;80;21533;-70
2022/01/31 06:09:43;;;;;;;30.88;9.10;;;;;;;1.60;72.43;99729.05;1784577;80;21455;-70
2022/01/31 06:12:11;;;;;;;29.18;7.67;;;;;;;1.61;72.48;99723.32;1784562;80;22100;-70
2022/01/31 06:14:39;;;;;;;23.25;7.58;;;;;;;1.61;72.52;99714.13;1784551;80;21029;-71
2022/01/31 06:17:05;;;;;;;32.23;8.88;;;;;;;1.60;72.59;99711.98;1784697;80;21001;-70
2022/01/31 06:19:31;;;;;;;38.78;11.83;;;;;;;1.57;72.65;99712.72;1784892;80;21519;-70
2022/01/31 06:21:57;;;;;;;77.55;21.97;;;;;;;1.51;72.74;99707.00;1784846;80;20997;-70
2022/01/31 06:24:23;;;;;;;83.92;25.60;;;;;;;1.46;72.82;99703.95;1785039;80;21060;-70
2022/01/31 06:26:49;;;;;;;94.50;28.10;;;;;;;1.43;72.90;99702.90;1784538;80;20994;-70
2022/01/31 06:29:15;;;;;;;91.80;29.32;;;;;;;1.41;72.98;99697.40;1783524;80;21562;-70
2022/01/31 06:31:41;;;;;;;141.60;63.03;;;;;;;1.40;73.06;99697.91;1780299;80;20958;-70
2022/01/31 06:34:07;;;;;;;75.95;36.00;;;;;;;1.40;73.11;99691.34;1780221;80;21806;-70
2022/01/31 06:36:33;;;;;;;48.42;16.50;;;;;;;1.40;73.19;99693.97;1780461;80;21774;-70
2022/01/31 06:39:00;;;;;;;31.52;8.88;;;;;;;1.42;73.24;99692.03;1780133;80;21043;-70
2022/01/31 06:41:26;;;;;;;20.05;5.80;;;;;;;1.42;73.33;99689.41;1780313;80;20975;-70
2022/01/31 06:43:53;;;;;;;23.52;4.95;;;;;;;1.44;73.37;99690.09;1760066;81;21074;-70
2022/01/31 06:46:19;;;;;;;19.52;4.65;;;;;;;1.46;73.46;99695.23;1747974;82;21054;-70
2022/01/31 06:48:45;;;;;;;26.80;5.50;;;;;;;1.48;73.53;99699.39;1760180;81;21157;-70
2022/01/31 06:51:11;;;;;;;22.82;5.12;;;;;;;1.49;73.61;99692.34;1747967;82;20995;-70
2022/01/31 06:53:37;;;;;;;26.82;5.62;;;;;;;1.51;73.68;99696.50;1760433;81;21695;-70
2022/01/31 06:56:04;;;;;;;30.12;6.10;;;;;;;1.52;73.74;99696.02;1759801;81;21491;-70
2022/01/31 06:58:30;;;;;;;34.75;6.55;;;;;;;1.54;73.83;99691.96;1760344;81;20999;-71
2022/01/31 07:00:57;;;;;;;43.50;16.23;;;;;;;1.53;73.87;99690.28;1759810;81;21182;-70
2022/01/31 07:03:24;;;;;;;33.73;7.97;;;;;;;1.54;73.91;99680.14;1759819;81;20951;-71
2022/01/31 07:05:50;;;;;;;38.92;6.75;;;;;;;1.55;73.97;99679.19;1759915;81;21054;-71
2022/01/31 07:08:16;;;;;;;35.98;6.28;;;;;;;1.53;73.99;99675.36;1760068;81;21038;-71
2022/01/31 07:10:50;;;;;;;23.98;5.62;;;;;;;1.54;74.01;99668.31;1780249;80;20994;-71
2022/01/31 07:13:24;;;;;;;32.98;5.70;;;;;;;1.55;74.04;99672.62;1778888;80;21224;-71
2022/01/31 07:15:41;;;;;;;27.52;5.78;;;;;;;1.55;74.08;99662.11;1777075;80;20979;-71
2022/01/31 07:18:07;;;;;;;27.07;6.15;;;;;;;1.55;74.12;99656.85;1780321;80;20910;-70
2022/01/31 07:20:37;;;;;;;29.25;6.35;;;;;;;1.55;74.14;99651.09;1780321;80;20987;-71
2022/01/31 07:23:08;;;;;;;22.73;4.15;;;;;;;1.57;74.15;99641.77;1779975;79;21483;-70
2022/01/31 07:25:38;;;;;;;22.62;3.75;;;;;;;1.56;74.18;99636.16;1779247;79;21227;-70
2022/01/31 07:27:57;;;;;;;32.67;5.28;;;;;;;1.59;74.21;99635.89;1774867;80;20982;-71
2022/01/31 07:30:23;;;;;;;24.60;4.30;;;;;;;1.60;74.25;99631.00;1778981;80;21309;-71
2022/01/31 07:32:50;;;;;;;25.00;5.15;;;;;;;1.63;74.29;99634.67;1778911;80;21546;-71
2022/01/31 07:35:16;;;;;;;24.92;7.22;;;;;;;1.65;74.32;99634.08;1778958;79;21062;-70
2022/01/31 07:37:42;;;;;;;35.08;8.38;;;;;;;1.65;74.35;99634.08;1779131;80;21042;-71
2022/01/31 07:40:09;;;;;;;39.75;8.70;;;;;;;1.65;74.38;99634.08;1778679;80;21050;-70
2022/01/31 07:42:35;;;;;;;25.62;5.35;;;;;;;1.66;74.42;99628.67;1778934;80;21062;-70
2022/01/31 07:45:01;;;;;;;27.87;4.90;;;;;;;1.67;74.43;99618.99;1778929;80;20875;-71
2022/01/31 07:47:27;;;;;;;40.35;5.55;;;;;;;1.67;74.45;99612.42;1779019;79;20994;-71
2022/01/31 07:49:53;;;;;;;22.35;4.40;;;;;;;1.65;74.45;99611.73;1778911;80;21078;-70
2022/01/31 07:52:19;;;;;;;29.82;5.17;;;;;;;1.65;74.44;99607.80;1778957;80;20851;-70
2022/01/31 07:54:45;;;;;;;24.32;4.65;;;;;;;1.64;74.45;99606.13;1778757;80;20939;-70
2022/01/31 07:57:11;;;;;;;25.02;4.65;;;;;;;1.64;74.46;99603.50;1778445;79;21423;-70
2022/01/31 07:59:37;;;;;;;24.27;4.55;;;;;;;1.64;74.46;99604.33;1779034;80;21534;-70
2022/01/31 08:02:04;;;;;;;27.82;4.87;;;;;;;1.65;74.48;99598.13;1781404;79;22189;-70
2022/01/31 08:04:30;;;;;;;18.10;4.28;;;;;;;1.67;74.47;99594.03;1797471;79;21021;-70
2022/01/31 08:06:56;;;;;;;24.95;6.58;;;;;;;1.69;74.50;99588.17;1793504;79;21010;-70
2022/01/31 08:09:21;;;;;;;28.73;9.33;;;;;;;1.69;74.50;99577.66;1804912;79;20870;-70
2022/01/31 08:11:48;;;;;;;27.50;7.55;;;;;;;1.71;74.52;99575.72;1784697;79;21057;-70
2022/01/31 08:14:17;;;;;;;37.70;8.13;;;;;;;1.72;74.53;99576.08;1793278;79;21113;-70
2022/01/31 08:16:42;;;;;;;37.73;6.03;;;;;;;1.74;74.56;99570.19;1814263;79;21049;-70
2022/01/31 08:19:08;;;;;;;31.93;6.35;;;;;;;1.74;74.56;99573.66;1800442;79;20990;-70
2022/01/31 08:21:35;;;;;;;27.05;6.90;;;;;;;1.74;74.57;99565.77;1784807;79;21148;-70
2022/01/31 08:24:02;;;;;;;40.17;9.50;;;;;;;1.75;74.57;99566.61;1787042;79;21589;-70
2022/01/31 08:26:28;;;;;;;51.58;18.98;;;;;;;1.77;74.56;99564.66;1791379;79;21928;-70
2022/01/31 08:29:01;;;;;;;80.50;39.63;;;;;;;1.77;74.56;99562.03;1788794;79;21636;-70
2022/01/31 08:31:29;;;;;;;45.52;11.55;;;;;;;1.77;74.56;99558.09;1797081;78;21005;-70
2022/01/31 08:34:05;;;;;;;50.67;16.80;;;;;;;1.79;74.55;99560.13;1807160;78;21053;-70
2022/01/31 08:36:19;;;;;;;39.88;14.15;;;;;;;1.81;74.59;99555.55;1785737;80;21010;-71
2022/01/31 08:38:45;;;;;;;35.13;8.95;;;;;;;1.82;74.58;99547.55;1800234;78;21096;-71
2022/01/31 08:41:11;;;;;;;38.25;10.82;;;;;;;1.86;74.60;99555.98;1792343;78;21013;-71
2022/01/31 08:43:37;;;;;;;37.55;13.10;;;;;;;1.88;74.62;99548.78;1794847;78;21009;-71
2022/01/31 08:46:04;;;;;;;47.48;18.60;;;;;;;1.89;74.62;99545.20;1807857;79;20983;-71
2022/01/31 08:48:30;;;;;;;79.95;39.18;;;;;;;1.91;74.64;99540.62;1813913;79;21026;-71
2022/01/31 08:50:56;;;;;;;52.83;15.32;;;;;;;1.91;74.65;99537.52;1788395;80;21121;-71
2022/01/31 08:53:22;;;;;;;41.23;9.95;;;;;;;1.93;74.66;99538.70;1787173;80;21002;-70
2022/01/31 08:55:53;;;;;;;39.05;9.00;;;;;;;1.95;74.68;99532.34;1768859;80;20894;-71
2022/01/31 08:58:19;;;;;;;46.20;13.88;;;;;;;1.96;74.68;99530.06;1774545;80;21061;-71
2022/01/31 09:00:49;;;;;;;40.05;9.03;;;;;;;1.99;74.67;99527.63;1790946;79;21479;-71
2022/01/31 09:05:39;;;;;;;43.58;7.30;;;;;;;2.05;74.65;99524.45;1777059;78;20873;-71
2022/01/31 09:08:05;;;;;;;32.53;8.45;;;;;;;2.06;74.63;99520.86;1773653;80;21719;-71
2022/01/31 09:10:32;;;;;;;36.17;7.50;;;;;;;2.09;74.61;99523.21;1786596;80;21051;-71
2022/01/31 09:12:58;;;;;;;30.80;8.68;;;;;;;2.11;74.58;99516.00;1786600;80;21075;-71
2022/01/31 09:15:24;;;;;;;37.73;9.28;;;;;;;2.15;74.57;99512.13;1786340;80;21178;-71
2022/01/31 09:17:50;;;;;;;38.50;9.50;;;;;;;2.19;74.56;99516.15;1786690;80;20991;-71
2022/01/31 09:20:17;;;;;;;25.92;6.33;;;;;;;2.23;74.54;99510.96;1787331;80;20992;-71
2022/01/31 09:22:43;;;;;;;36.90;10.00;;;;;;;2.29;74.55;99507.77;1788038;79;20985;-71
2022/01/31 09:25:11;;;;;;;32.10;8.40;;;;;;;2.31;74.53;99499.75;1788322;80;21489;-71
2022/01/31 09:27:37;;;;;;;29.20;8.05;;;;;;;2.35;74.53;99499.34;1786385;80;21173;-71
2022/01/31 09:30:05;;;;;;;50.58;11.83;;;;;;;2.38;74.53;99492.48;1788062;80;21088;-71
2022/01/31 09:32:31;;;;;;;40.08;11.57;;;;;;;2.41;74.51;99491.36;1787640;78;21045;-71
2022/01/31 09:34:58;;;;;;;35.92;8.60;;;;;;;2.47;74.52;99492.94;1788640;78;21506;-71
2022/01/31 09:37:24;;;;;;;37.33;7.97;;;;;;;2.48;74.51;99481.45;1781633;79;20970;-71
2022/01/31 09:39:50;;;;;;;47.50;8.40;;;;;;;2.48;74.45;99482.77;1804350;78;21447;-70
2022/01/31 09:42:29;;;;;;;51.10;9.80;;;;;;;2.51;74.42;99479.02;1816855;78;21001;-71
2022/01/31 09:44:51;;;;;;;41.55;6.97;;;;;;;2.53;74.39;99483.67;1785842;80;21049;-70
2022/01/31 09:47:23;;;;;;;44.95;8.88;;;;;;;2.53;74.34;99475.27;1804242;77;20998;-71
2022/01/31 09:49:48;;;;;;;30.00;7.60;;;;;;;2.57;74.30;99469.74;1784928;78;21049;-71
2022/01/31 09:52:15;;;;;;;31.35;9.25;;;;;;;2.57;74.24;99470.55;1806161;78;21668;-71
2022/01/31 09:54:42;;;;;;;39.50;9.50;;;;;;;2.57;74.19;99458.70;1786391;78;21496;-71
2022/01/31 09:57:08;;;;;;;42.98;14.03;;;;;;;2.57;74.13;99454.75;1785592;80;21534;-70
2022/01/31 09:59:34;;;;;;;55.05;14.63;;;;;;;2.60;74.11;99458.45;1787339;80;21049;-70
2022/01/31 10:02:01;;;;;;;43.50;13.53;;;;;;;2.62;74.07;99458.28;1771136;80;21077;-70
2022/01/31 10:04:34;;;;;;;30.60;9.90;;;;;;;2.62;74.00;99451.70;1737642;80;21146;-70
2022/01/31 10:06:57;;;;;;;31.55;7.55;;;;;;;2.61;73.94;99450.04;1782928;80;21014;-71
2022/01/31 10:09:31;;;;;;;33.15;7.80;;;;;;;2.60;73.93;99448.41;1781593;80;20989;-71
2022/01/31 10:12:19;;;;;;;32.48;7.85;;;;;;;2.62;73.90;99442.50;1785646;79;20998;-71
2022/01/31 10:17:41;;;;;;;32.50;6.30;;;;;;;2.67;73.86;99444.22;1757333;81;21069;-71
2022/01/31 10:20:28;;;;;;;25.97;5.97;;;;;;;2.69;73.84;99437.00;1735412;82;21017;-71
2022/01/31 10:22:54;;;;;;;35.75;8.60;;;;;;;2.67;73.81;99438.96;1741286;81;20956;-71
2022/01/31 10:25:22;;;;;;;43.90;9.78;;;;;;;2.69;73.78;99430.42;1784030;79;20959;-71
2022/01/31 10:27:52;;;;;;;47.38;10.85;;;;;;;2.71;73.75;99431.13;1797296;79;21010;-70
2022/01/31 10:30:22;;;;;;;36.50;10.63;;;;;;;2.73;73.71;99425.22;1816703;78;21124;-70
2022/01/31 10:32:49;;;;;;;47.60;9.35;;;;;;;2.76;73.69;99422.30;1788018;80;21053;-70
2022/01/31 10:35:18;;;;;;;31.77;7.28;;;;;;;2.75;73.62;99420.63;1788469;80;20994;-70
2022/01/31 10:37:45;;;;;;;41.37;8.33;;;;;;;2.72;73.55;99416.97;1788543;80;20986;-70
2022/01/31 10:53:43;;;;;;;22.70;6.53;;;;;;;2.74;73.31;99413.72;1788161;78;21057;-71
2022/01/31 10:56:09;;;;;;;40.50;8.60;;;;;;;2.81;73.28;99409.06;1787514;80;21362;-70
2022/01/31 10:58:36;;;;;;;25.70;5.28;;;;;;;2.87;73.25;99402.37;1788130;80;20883;-71
2022/01/31 11:01:16;;;;;;;34.65;6.72;;;;;;;2.88;73.21;99405.35;1788488;80;21021;-70
2022/01/31 11:03:45;;;;;;;29.75;8.38;;;;;;;2.87;73.19;99407.15;1788453;80;21034;-71
2022/01/31 11:06:10;;;;;;;50.75;18.25;;;;;;;2.88;73.17;99406.19;1787248;80;21326;-71
2022/01/31 11:08:36;;;;;;;41.13;14.60;;;;;;;2.89;73.15;99404.36;1787572;80;21103;-71
2022/01/31 11:11:03;;;;;;;57.30;24.10;;;;;;;2.90;73.11;99398.95;1788175;80;21049;-70
2022/01/31 11:13:32;;;;;;;50.63;17.25;;;;;;;2.92;73.08;99401.45;1788403;80;21065;-71
2022/01/31 11:15:58;;;;;;;31.65;8.05;;;;;;;2.92;73.07;99398.31;1786786;79;21060;-70
2022/01/31 11:18:25;;;;;;;68.12;13.40;;;;;;;2.92;73.03;99397.51;1788050;80;21029;-70
2022/01/31 11:20:54;;;;;;;54.80;15.38;;;;;;;2.94;73.00;99395.55;1788334;80;21116;-70
2022/01/31 11:23:21;;;;;;;62.33;23.65;;;;;;;2.95;72.97;99388.83;1764100;80;21001;-70
2022/01/31 11:25:47;;;;;;;77.12;24.67;;;;;;;2.97;72.90;99388.66;1788352;80;20997;-70
2022/01/31 11:28:13;;;;;;;55.38;15.35;;;;;;;3.02;72.90;99375.91;1788192;80;21029;-71
2022/01/31 11:30:41;;;;;;;36.33;8.83;;;;;;;3.07;72.86;99376.27;1787708;79;21097;-71
2022/01/31 11:33:07;;;;;;;64.25;19.87;;;;;;;3.10;72.82;99375.97;1784726;80;21554;-71
2022/01/31 11:35:33;;;;;;;72.17;22.85;;;;;;;3.09;72.77;99371.70;1784524;80;21522;-70
2022/01/31 11:37:59;;;;;;;52.00;16.15;;;;;;;3.11;72.72;99373.69;1784621;80;21565;-70
2022/01/31 11:40:25;;;;;;;44.40;10.95;;;;;;;3.12;72.66;99373.20;1784722;80;21037;-70
2022/01/31 11:42:51;;;;;;;54.15;14.87;;;;;;;3.12;72.63;99372.72;1784744;80;21554;-70
2022/01/31 11:45:22;;;;;;;44.38;11.30;;;;;;;3.19;72.59;99374.27;1784614;80;22083;-70
2022/01/31 11:47:49;;;;;;;39.85;8.85;;;;;;;3.19;72.55;99375.10;1784507;80;20991;-70
2022/01/31 11:50:16;;;;;;;54.03;13.75;;;;;;;3.20;72.49;99375.42;1756863;81;21010;-71